createdAt,value
2023-01-30T00:01:47.290Z,100579.66
2023-01-30T00:04:17.214Z,100581.38
2023-01-30T00:06:46.512Z,100589.44
2023-01-30T00:09:15.615Z,100595.75
2023-01-30T00:11:43.895Z,100591.69
2023-01-30T00:14:11.536Z,100591.50
2023-01-30T00:16:39.364Z,100589.34
2023-01-30T00:19:07.277Z,100584.19
2023-01-30T00:21:34.987Z,100594.00
2023-01-30T00:24:04.363Z,100585.31
2023-01-30T00:26:32.083Z,100574.47
2023-01-30T00:28:59.818Z,100581.41
2023-01-30T00:31:27.488Z,100563.84
2023-01-30T00:33:55.357Z,100564.75
2023-01-30T00:36:24.608Z,100563.97
2023-01-30T00:38:52.593Z,100571.31
2023-01-30T00:41:21.764Z,100565.41
2023-01-30T00:44:06.903Z,100563.22
2023-01-30T00:46:53.208Z,100561.91
2023-01-30T00:49:21.894Z,100538.31
2023-01-30T00:51:49.726Z,100549.41
2023-01-30T00:54:17.449Z,100544.06
2023-01-30T00:56:46.453Z,100519.88
2023-01-30T00:59:14.321Z,100536.03
2023-01-30T01:01:42.332Z,100530.53
2023-01-30T01:04:11.782Z,100522.34
2023-01-30T01:06:39.793Z,100518.63
2023-01-30T01:09:08.204Z,100504.50
2023-01-30T01:11:36.952Z,100493.91
2023-01-30T01:14:07.210Z,100491.34
2023-01-30T01:16:36.568Z,100475.59
2023-01-30T01:19:05.463Z,100482.97
2023-01-30T01:21:33.183Z,100486.22
2023-01-30T01:24:01.406Z,100476.63
2023-01-30T01:26:29.354Z,100490.47
2023-01-30T01:28:57.675Z,100473.03
2023-01-30T01:31:27.009Z,100489.78
2023-01-30T01:33:56.876Z,100492.38
2023-01-30T01:36:52.123Z,100496.09
2023-01-30T01:39:14.147Z,100484.41
2023-01-30T01:41:41.903Z,100484.84
2023-01-30T01:44:11.107Z,100491.81
2023-01-30T01:46:45.164Z,100501.34
2023-01-30T01:49:16.421Z,100495.28
2023-01-30T01:51:50.620Z,100479.28
2023-01-30T01:54:24.415Z,100477.66
2023-01-30T01:56:52.643Z,100481.81
2023-01-30T01:59:27.123Z,100485.13
2023-01-30T02:01:59.080Z,100493.09
2023-01-30T02:04:42.841Z,100483.97
2023-01-30T02:07:10.692Z,100479.44
2023-01-30T02:09:38.833Z,100484.88
2023-01-30T02:12:07.070Z,100475.84
2023-01-30T02:14:35.928Z,100461.88
2023-01-30T02:17:05.129Z,100443.38
2023-01-30T02:19:43.567Z,100427.94
2023-01-30T02:22:32.751Z,100436.44
2023-01-30T02:25:28.232Z,100433.00
2023-01-30T02:28:27.738Z,100442.66
2023-01-30T02:31:09.069Z,100441.75
2023-01-30T02:33:45.174Z,100446.66
2023-01-30T02:36:22.234Z,100432.84
2023-01-30T02:39:01.605Z,100409.44
2023-01-30T02:41:37.841Z,100408.78
2023-01-30T02:44:07.621Z,100412.94
2023-01-30T02:46:44.959Z,100405.91
2023-01-30T02:49:18.266Z,100412.16
2023-01-30T02:51:48.491Z,100419.56
2023-01-30T02:54:16.957Z,100426.00
2023-01-30T02:56:46.688Z,100418.16
2023-01-30T02:59:19.429Z,100418.94
2023-01-30T03:02:17.741Z,100435.78
2023-01-30T03:05:09.706Z,100405.34
2023-01-30T03:07:46.413Z,100436.50
2023-01-30T03:10:23.744Z,100431.28
2023-01-30T03:13:04.000Z,100443.72
2023-01-30T03:15:36.202Z,100437.88
2023-01-30T03:18:06.027Z,100449.88
2023-01-30T03:20:38.150Z,100431.78
2023-01-30T03:23:07.408Z,100440.63
2023-01-30T03:25:38.244Z,100426.94
2023-01-30T03:28:07.981Z,100420.94
2023-01-30T03:30:35.730Z,100421.31
2023-01-30T03:33:11.327Z,100426.13
2023-01-30T03:35:41.298Z,100427.06
2023-01-30T03:38:10.315Z,100427.94
2023-01-30T03:40:38.004Z,100433.19
2023-01-30T03:43:05.689Z,100425.47
2023-01-30T03:45:34.542Z,100408.16
2023-01-30T03:48:02.156Z,100359.25
2023-01-30T03:50:33.033Z,100413.56
2023-01-30T03:53:01.687Z,100413.13
2023-01-30T03:55:30.013Z,100416.56
2023-01-30T03:57:58.451Z,100385.22
2023-01-30T04:00:29.468Z,100422.47
2023-01-30T04:02:58.879Z,100429.56
2023-01-30T04:05:26.853Z,100418.81
2023-01-30T04:08:01.247Z,100400.88
2023-01-30T04:10:28.961Z,100409.91
2023-01-30T04:12:56.827Z,100412.16
2023-01-30T04:15:24.737Z,100407.59
2023-01-30T04:18:11.184Z,100398.31
2023-01-30T04:21:01.174Z,100400.50
2023-01-30T04:23:38.848Z,100398.06
2023-01-30T04:26:08.788Z,100405.00
2023-01-30T04:28:39.174Z,100409.22
2023-01-30T04:31:07.882Z,100402.69
2023-01-30T04:33:42.782Z,100391.06
2023-01-30T04:36:12.360Z,100377.41
2023-01-30T04:38:42.330Z,100376.66
2023-01-30T04:41:10.003Z,100367.75
2023-01-30T04:43:40.952Z,100373.84
2023-01-30T04:46:28.473Z,100368.59
2023-01-30T04:48:57.068Z,100367.81
2023-01-30T04:51:24.822Z,100371.03
2023-01-30T04:53:53.817Z,100353.69
2023-01-30T04:56:21.569Z,100346.06
2023-01-30T04:58:50.673Z,100345.28
2023-01-30T05:01:24.524Z,100341.50
2023-01-30T05:03:52.927Z,100343.59
2023-01-30T05:06:21.387Z,100333.56
2023-01-30T05:08:50.177Z,100324.94
2023-01-30T05:11:19.689Z,100321.53
2023-01-30T05:13:47.824Z,100313.09
2023-01-30T05:16:16.705Z,100321.63
2023-01-30T05:18:44.951Z,100315.75
2023-01-30T05:21:15.242Z,100311.03
2023-01-30T05:23:43.357Z,100256.59
2023-01-30T05:26:12.802Z,100309.13
2023-01-30T05:28:42.054Z,100314.03
2023-01-30T05:31:12.218Z,100309.94
2023-01-30T05:33:40.590Z,100297.81
2023-01-30T05:36:09.052Z,100297.00
2023-01-30T05:38:36.675Z,100306.31
2023-01-30T05:41:06.487Z,100309.44
2023-01-30T05:43:36.189Z,100305.63
2023-01-30T05:46:06.908Z,100326.56
2023-01-30T05:48:35.221Z,100328.00
2023-01-30T05:51:03.008Z,100330.97
2023-01-30T05:53:34.459Z,100336.00
2023-01-30T05:56:04.316Z,100290.78
2023-01-30T05:58:32.981Z,100326.69
2023-01-30T06:01:01.960Z,100328.47
2023-01-30T06:03:31.343Z,100330.28
2023-01-30T06:05:59.139Z,100327.69
2023-01-30T06:08:26.780Z,100329.09
2023-01-30T06:10:54.411Z,100324.75
2023-01-30T06:13:22.099Z,100319.94
2023-01-30T06:15:50.110Z,100309.53
2023-01-30T06:18:17.884Z,100303.03
2023-01-30T06:20:49.958Z,100302.84
2023-01-30T06:23:18.185Z,100295.22
2023-01-30T06:25:46.630Z,100300.63
2023-01-30T06:28:15.783Z,100278.47
2023-01-30T06:30:43.965Z,100279.78
2023-01-30T06:33:12.092Z,100278.47
2023-01-30T06:35:39.766Z,100260.03
2023-01-30T06:38:11.261Z,100267.03
2023-01-30T06:40:39.132Z,100268.25
2023-01-30T06:43:06.949Z,100263.84
2023-01-30T06:45:34.756Z,100267.25
2023-01-30T06:48:02.362Z,100270.88
2023-01-30T06:50:30.826Z,100271.84
2023-01-30T06:52:59.978Z,100280.97
2023-01-30T06:55:29.358Z,100267.25
2023-01-30T06:58:04.652Z,100274.66
2023-01-30T07:00:32.966Z,100273.03
2023-01-30T07:03:00.826Z,100276.78
2023-01-30T07:05:29.772Z,100274.75
2023-01-30T07:07:57.536Z,100287.19
2023-01-30T07:10:26.186Z,100287.88
2023-01-30T07:12:55.116Z,100272.34
2023-01-30T07:15:22.750Z,100273.47
2023-01-30T07:17:50.388Z,100282.16
2023-01-30T07:20:18.310Z,100269.44
2023-01-30T07:22:50.714Z,100266.34
2023-01-30T07:25:19.190Z,100260.84
2023-01-30T07:27:51.936Z,100257.00
2023-01-30T07:30:21.340Z,100272.47
2023-01-30T07:32:52.350Z,100264.53
2023-01-30T07:35:20.196Z,100258.59
2023-01-30T07:37:48.491Z,100277.84
2023-01-30T07:40:17.009Z,100291.41
2023-01-30T07:42:45.304Z,100277.25
2023-01-30T07:45:12.972Z,100296.09
2023-01-30T07:47:41.915Z,100273.13
2023-01-30T07:50:10.562Z,100273.63
2023-01-30T07:52:38.229Z,100280.84
2023-01-30T07:55:06.607Z,100273.47
2023-01-30T07:57:34.267Z,100278.66
2023-01-30T08:00:01.933Z,100269.22
2023-01-30T08:02:36.591Z,100286.16
2023-01-30T08:05:07.006Z,100276.13
2023-01-30T08:07:34.796Z,100285.97
2023-01-30T08:10:02.671Z,100231.47
2023-01-30T08:12:30.594Z,100287.75
2023-01-30T08:14:58.295Z,100278.38
2023-01-30T08:17:25.951Z,100315.53
2023-01-30T08:19:53.671Z,100294.28
2023-01-30T08:22:22.711Z,100307.28
2023-01-30T08:24:50.337Z,100306.91
2023-01-30T08:27:18.326Z,100301.78
2023-01-30T08:29:46.229Z,100272.72
2023-01-30T08:32:14.899Z,100281.53
2023-01-30T08:34:43.522Z,100279.94
2023-01-30T08:37:11.152Z,100279.34
2023-01-30T08:39:40.107Z,100272.13
2023-01-30T08:42:07.754Z,100271.41
2023-01-30T08:44:35.407Z,100272.22
2023-01-30T08:47:03.922Z,100273.31
2023-01-30T08:49:31.577Z,100269.97
2023-01-30T08:51:59.198Z,100285.75
2023-01-30T08:54:26.952Z,100281.31
2023-01-30T08:56:56.167Z,100282.53
2023-01-30T08:59:23.788Z,100277.41
2023-01-30T09:01:51.442Z,100280.88
2023-01-30T09:04:19.156Z,100277.97
2023-01-30T09:06:46.768Z,100273.06
2023-01-30T09:09:14.386Z,100249.19
2023-01-30T09:11:42.068Z,100192.06
2023-01-30T09:14:11.043Z,100238.84
2023-01-30T09:16:38.638Z,100250.16
2023-01-30T09:19:06.238Z,100253.63
2023-01-30T09:21:33.892Z,100244.19
2023-01-30T09:24:01.561Z,100232.84
2023-01-30T09:26:29.329Z,100233.50
2023-01-30T09:28:56.937Z,100209.56
2023-01-30T09:31:26.231Z,100220.16
2023-01-30T09:33:53.845Z,100223.38
2023-01-30T09:36:21.796Z,100234.69
2023-01-30T09:38:49.375Z,100228.25
2023-01-30T09:41:42.016Z,100236.31
2023-01-30T09:44:37.012Z,100243.44
2023-01-30T09:47:12.385Z,100244.81
2023-01-30T09:49:54.895Z,100241.56
2023-01-30T09:52:31.779Z,100237.53
2023-01-30T09:55:03.415Z,100235.94
2023-01-30T09:57:31.559Z,100228.53
2023-01-30T10:00:08.321Z,100239.19
2023-01-30T10:02:53.084Z,100215.84
2023-01-30T10:05:21.039Z,100227.66
2023-01-30T10:08:15.699Z,100241.25
2023-01-30T10:10:57.983Z,100229.78
2023-01-30T10:13:56.673Z,100231.63
2023-01-30T10:16:29.168Z,100234.22
2023-01-30T10:19:10.752Z,100226.91
2023-01-30T10:21:47.624Z,100219.53
2023-01-30T10:24:43.799Z,100219.53
2023-01-30T10:27:15.824Z,100209.66
2023-01-30T10:29:49.564Z,100223.41
2023-01-30T10:32:21.207Z,100224.69
2023-01-30T10:34:53.915Z,100221.03
2023-01-30T10:37:28.471Z,100214.94
2023-01-30T10:40:04.150Z,100210.75
2023-01-30T10:42:38.999Z,100206.00
2023-01-30T10:45:13.119Z,100206.53
2023-01-30T10:47:51.131Z,100212.88
2023-01-30T10:50:24.382Z,100215.16
2023-01-30T10:52:59.239Z,100210.22
2023-01-30T10:55:37.743Z,100204.66
2023-01-30T10:58:12.453Z,100196.84
2023-01-30T11:00:44.385Z,100192.41
2023-01-30T11:03:37.534Z,100178.97
2023-01-30T11:06:09.490Z,100189.00
2023-01-30T11:08:37.279Z,100187.88
2023-01-30T11:11:29.493Z,100195.56
2023-01-30T11:14:04.384Z,100188.69
2023-01-30T11:16:33.089Z,100188.41
2023-01-30T11:19:19.416Z,100187.63
2023-01-30T11:21:51.830Z,100166.19
2023-01-30T11:24:21.118Z,100189.03
2023-01-30T11:26:48.935Z,100184.44
2023-01-30T11:29:25.969Z,100179.31
2023-01-30T11:31:54.839Z,100192.28
2023-01-30T11:34:24.335Z,100180.47
2023-01-30T11:36:53.355Z,100180.47
2023-01-30T11:39:24.371Z,100160.16
2023-01-30T11:42:01.959Z,100155.69
2023-01-30T11:44:31.358Z,100164.94
2023-01-30T11:47:00.279Z,100161.75
2023-01-30T11:49:47.341Z,100167.09
2023-01-30T11:52:27.550Z,100173.94
2023-01-30T11:55:00.927Z,100169.94
2023-01-30T11:57:28.758Z,100153.56
2023-01-30T11:59:58.978Z,100168.84
2023-01-30T12:02:30.723Z,100174.94
2023-01-30T12:05:02.004Z,100167.09
2023-01-30T12:07:34.180Z,100172.22
2023-01-30T12:10:02.066Z,100162.78
2023-01-30T12:12:34.592Z,100171.91
2023-01-30T12:15:13.190Z,100164.75
2023-01-30T12:17:47.458Z,100152.19
2023-01-30T12:20:21.998Z,100159.84
2023-01-30T12:22:58.963Z,100163.19
2023-01-30T12:25:30.194Z,100170.22
2023-01-30T12:28:02.909Z,100159.47
2023-01-30T12:33:11.720Z,100164.81
2023-01-30T12:35:50.807Z,100151.16
2023-01-30T12:38:31.020Z,100134.56
2023-01-30T12:41:12.124Z,100137.56
2023-01-30T12:44:14.243Z,100163.41
2023-01-30T12:46:58.464Z,100172.28
2023-01-30T12:49:40.705Z,100173.00
2023-01-30T12:52:29.926Z,100173.34
2023-01-30T12:55:07.818Z,100158.53
2023-01-30T12:57:43.105Z,100171.16
2023-01-30T13:00:29.758Z,100168.97
2023-01-30T13:03:13.121Z,100160.44
2023-01-30T13:05:46.615Z,100154.88
2023-01-30T13:08:34.644Z,100154.97
2023-01-30T13:11:16.570Z,100161.44
2023-01-30T13:13:51.963Z,100166.31
2023-01-30T13:16:28.817Z,100173.00
2023-01-30T13:19:01.105Z,100177.16
2023-01-30T13:21:35.855Z,100161.25
2023-01-30T13:24:19.027Z,100166.53
2023-01-30T13:26:50.082Z,100179.06
2023-01-30T13:29:26.547Z,100173.28
2023-01-30T13:31:57.296Z,100163.44
2023-01-30T13:34:31.567Z,100161.44
2023-01-30T13:37:05.093Z,100161.88
2023-01-30T13:39:42.266Z,100174.53
2023-01-30T13:42:19.032Z,100170.34
2023-01-30T13:44:48.996Z,100170.94
2023-01-30T13:47:30.725Z,100173.50
2023-01-30T13:50:22.547Z,100164.66
2023-01-30T13:52:57.399Z,100170.81
2023-01-30T13:55:33.623Z,100171.66
2023-01-30T13:58:11.085Z,100179.06
2023-01-30T14:00:38.810Z,100176.13
2023-01-30T14:03:26.347Z,100177.00
2023-01-30T14:06:03.340Z,100175.56
2023-01-30T14:08:37.054Z,100176.97
2023-01-30T14:11:05.027Z,100186.03
2023-01-30T14:13:35.731Z,100185.75
2023-01-30T14:16:06.193Z,100175.31
2023-01-30T14:18:38.547Z,100170.59
2023-01-30T14:21:16.676Z,100187.03
2023-01-30T14:23:56.068Z,100194.53
2023-01-30T14:26:56.944Z,100188.31
2023-01-30T14:29:53.241Z,100190.78
2023-01-30T14:32:53.331Z,100197.75
2023-01-30T14:35:24.088Z,100203.00
2023-01-30T14:38:17.177Z,100205.81
2023-01-30T14:40:46.978Z,100209.66
2023-01-30T14:43:53.344Z,100214.06
2023-01-30T14:46:58.453Z,100209.31
2023-01-30T14:49:30.732Z,100201.47
2023-01-30T14:51:58.414Z,100211.03
2023-01-30T14:54:41.762Z,100215.78
2023-01-30T14:57:23.948Z,100212.97
2023-01-30T15:00:14.229Z,100212.44
2023-01-30T15:02:50.448Z,100214.94
2023-01-30T15:05:20.755Z,100222.63
2023-01-30T15:07:52.642Z,100224.75
2023-01-30T15:10:42.156Z,100218.50
2023-01-30T15:13:29.263Z,100229.78
2023-01-30T15:16:08.789Z,100234.97
2023-01-30T15:19:03.092Z,100237.91
2023-01-30T15:21:41.118Z,100242.41
2023-01-30T15:24:31.168Z,100246.75
2023-01-30T15:27:07.170Z,100255.72
2023-01-30T15:30:01.613Z,100253.66
2023-01-30T15:32:30.912Z,100265.78
2023-01-30T15:35:01.438Z,100264.78
2023-01-30T15:37:34.377Z,100272.81
2023-01-30T15:40:22.555Z,100272.66
2023-01-30T15:42:54.094Z,100284.66
2023-01-30T15:45:42.613Z,100292.44
2023-01-30T15:48:33.810Z,100299.69
2023-01-30T15:51:04.387Z,100305.47
2023-01-30T15:53:35.814Z,100303.56
2023-01-30T15:56:07.762Z,100333.31
2023-01-30T15:58:39.058Z,100336.78
2023-01-30T16:01:07.565Z,100331.25
2023-01-30T16:03:40.764Z,100350.50
2023-01-30T16:06:24.338Z,100328.13
2023-01-30T16:09:01.293Z,100348.63
2023-01-30T16:11:37.842Z,100353.03
2023-01-30T16:14:06.559Z,100345.25
2023-01-30T16:16:36.223Z,100355.81
2023-01-30T16:19:06.706Z,100353.06
2023-01-30T16:21:38.039Z,100358.63
2023-01-30T16:24:07.828Z,100357.53
2023-01-30T16:26:36.758Z,100361.13
2023-01-30T16:29:08.951Z,100373.63
2023-01-30T16:31:39.774Z,100369.50
2023-01-30T16:34:19.146Z,100372.22
2023-01-30T16:36:48.776Z,100382.31
2023-01-30T16:39:33.793Z,100365.56
2023-01-30T16:42:03.469Z,100391.94
2023-01-30T16:44:32.449Z,100400.00
2023-01-30T16:47:05.400Z,100401.78
2023-01-30T16:49:47.295Z,100348.34
2023-01-30T16:52:20.510Z,100413.44
2023-01-30T16:54:51.194Z,100411.56
2023-01-30T16:57:36.731Z,100411.88
2023-01-30T17:00:10.005Z,100422.44
2023-01-30T17:02:41.857Z,100407.22
2023-01-30T17:05:20.248Z,100424.50
2023-01-30T17:07:50.115Z,100431.22
2023-01-30T17:10:52.846Z,100433.16
2023-01-30T17:13:33.457Z,100449.47
2023-01-30T17:16:23.664Z,100438.91
2023-01-30T17:18:52.509Z,100453.31
2023-01-30T17:21:20.900Z,100456.84
2023-01-30T17:23:53.848Z,100453.28
2023-01-30T17:26:21.758Z,100460.34
2023-01-30T17:28:49.415Z,100457.63
2023-01-30T17:31:18.313Z,100461.63
2023-01-30T17:33:45.963Z,100470.59
2023-01-30T17:36:21.254Z,100466.72
2023-01-30T17:38:51.518Z,100467.69
2023-01-30T17:41:21.743Z,100470.59
2023-01-30T17:43:50.845Z,100477.94
2023-01-30T17:46:18.936Z,100484.66
2023-01-30T17:48:46.651Z,100474.09
2023-01-30T17:51:14.427Z,100487.06
2023-01-30T17:53:42.624Z,100486.59
2023-01-30T17:56:18.666Z,100490.09
2023-01-30T17:58:46.515Z,100496.50
2023-01-30T18:01:16.190Z,100494.09
2023-01-30T18:03:45.036Z,100465.88
2023-01-30T18:06:14.878Z,100488.09
2023-01-30T18:08:43.100Z,100510.22
2023-01-30T18:11:11.901Z,100515.31
2023-01-30T18:13:42.388Z,100528.63
2023-01-30T18:16:16.333Z,100521.22
2023-01-30T18:18:43.996Z,100527.00
2023-01-30T18:21:11.746Z,100536.13
2023-01-30T18:23:39.351Z,100543.97
2023-01-30T18:26:07.054Z,100543.31
2023-01-30T18:28:34.655Z,100545.06
2023-01-30T18:31:03.771Z,100554.41
2023-01-30T18:33:33.090Z,100560.00
2023-01-30T18:36:03.808Z,100555.94
2023-01-30T18:38:31.552Z,100560.09
2023-01-30T18:40:59.285Z,100561.38
2023-01-30T18:43:26.930Z,100554.63
2023-01-30T18:46:04.608Z,100558.38
2023-01-30T18:48:32.812Z,100566.19
2023-01-30T18:51:07.956Z,100564.88
2023-01-30T18:53:37.175Z,100566.66
2023-01-30T18:56:05.740Z,100566.41
2023-01-30T18:58:33.460Z,100575.94
2023-01-30T19:01:01.512Z,100575.63
2023-01-30T19:03:30.543Z,100588.78
2023-01-30T19:06:01.576Z,100585.38
2023-01-30T19:08:29.245Z,100590.38
2023-01-30T19:11:16.879Z,100587.78
2023-01-30T19:13:43.654Z,100595.66
2023-01-30T19:16:11.357Z,100595.69
2023-01-30T19:18:40.495Z,100592.69
2023-01-30T19:21:08.186Z,100597.47
2023-01-30T19:23:35.975Z,100597.16
2023-01-30T19:26:03.754Z,100611.28
2023-01-30T19:28:32.640Z,100607.59
2023-01-30T19:31:03.014Z,100599.22
2023-01-30T19:33:31.073Z,100612.69
2023-01-30T19:36:09.989Z,100609.81
2023-01-30T19:38:37.755Z,100617.19
2023-01-30T19:41:06.026Z,100609.03
2023-01-30T19:43:33.702Z,100624.28
2023-01-30T19:46:01.854Z,100626.44
2023-01-30T19:48:29.556Z,100621.69
2023-01-30T19:50:58.030Z,100622.91
2023-01-30T19:53:27.549Z,100622.16
2023-01-30T19:55:55.424Z,100623.84
2023-01-30T19:58:23.095Z,100625.09
2023-01-30T20:00:51.091Z,100633.13
2023-01-30T20:03:18.752Z,100647.31
2023-01-30T20:05:46.440Z,100640.13
2023-01-30T20:08:25.389Z,100640.47
2023-01-30T20:11:03.609Z,100654.47
2023-01-30T20:13:31.284Z,100651.75
2023-01-30T20:16:06.161Z,100659.28
2023-01-30T20:18:37.284Z,100653.84
2023-01-30T20:21:07.305Z,100605.81
2023-01-30T20:23:35.039Z,100656.84
2023-01-30T20:26:05.858Z,100660.56
2023-01-30T20:28:34.459Z,100657.22
2023-01-30T20:31:08.548Z,100650.34
2023-01-30T20:33:36.291Z,100666.69
2023-01-30T20:36:05.752Z,100660.25
2023-01-30T20:38:34.626Z,100672.75
2023-01-30T20:41:06.169Z,100671.81
2023-01-30T20:43:34.786Z,100668.97
2023-01-30T20:46:06.865Z,100676.28
2023-01-30T20:48:35.348Z,100693.88
2023-01-30T20:51:04.507Z,100694.72
2023-01-30T20:53:32.329Z,100687.59
2023-01-30T20:56:00.272Z,100707.56
2023-01-30T20:58:30.214Z,100709.03
2023-01-30T21:01:06.726Z,100708.47
2023-01-30T21:03:34.697Z,100711.63
2023-01-30T21:06:03.133Z,100716.25
2023-01-30T21:08:30.901Z,100723.84
2023-01-30T21:11:05.590Z,100725.41
2023-01-30T21:13:35.262Z,100726.88
2023-01-30T21:16:05.230Z,100728.63
2023-01-30T21:18:34.098Z,100735.38
2023-01-30T21:21:02.541Z,100736.34
2023-01-30T21:23:30.684Z,100731.00
2023-01-30T21:26:04.157Z,100728.28
2023-01-30T21:28:32.008Z,100745.44
2023-01-30T21:31:06.599Z,100753.44
2023-01-30T21:33:34.472Z,100757.31
2023-01-30T21:36:02.798Z,100757.03
2023-01-30T21:38:48.263Z,100761.31
2023-01-30T21:41:34.919Z,100755.84
2023-01-30T21:44:02.878Z,100773.69
2023-01-30T21:46:35.693Z,100761.94
2023-01-30T21:49:03.642Z,100757.31
2023-01-30T21:51:32.045Z,100772.47
2023-01-30T21:54:01.819Z,100768.31
2023-01-30T21:56:29.511Z,100762.00
2023-01-30T21:58:58.476Z,100766.81
2023-01-30T22:01:26.916Z,100767.41
2023-01-30T22:03:56.454Z,100765.66
2023-01-30T22:06:24.048Z,100762.34
2023-01-30T22:08:55.360Z,100757.31
2023-01-30T22:11:23.387Z,100746.84
2023-01-30T22:13:51.440Z,100770.59
2023-01-30T22:16:21.480Z,100780.19
2023-01-30T22:18:53.177Z,100770.41
2023-01-30T22:21:24.406Z,100784.38
2023-01-30T22:23:53.895Z,100774.88
2023-01-30T22:26:23.219Z,100794.16
2023-01-30T22:28:54.713Z,100788.19
2023-01-30T22:31:23.094Z,100795.88
2023-01-30T22:33:53.541Z,100801.69
2023-01-30T22:36:24.805Z,100810.69
2023-01-30T22:38:52.583Z,100804.25
2023-01-30T22:41:21.981Z,100814.81
2023-01-30T22:43:51.323Z,100816.41
2023-01-30T22:46:20.271Z,100814.19
2023-01-30T22:48:48.334Z,100817.13
2023-01-30T22:51:17.534Z,100821.16
2023-01-30T22:53:47.714Z,100830.06
2023-01-30T22:56:17.431Z,100826.13
2023-01-30T22:58:45.743Z,100815.22
2023-01-30T23:01:15.462Z,100816.88
2023-01-30T23:03:44.706Z,100815.41
2023-01-30T23:06:15.180Z,100815.88
2023-01-30T23:08:44.953Z,100812.09
2023-01-30T23:11:16.408Z,100816.22
2023-01-30T23:13:46.442Z,100816.09
2023-01-30T23:16:15.604Z,100814.03
2023-01-30T23:18:58.726Z,100817.72
2023-01-30T23:21:28.750Z,100817.13
2023-01-30T23:23:58.427Z,100815.16
2023-01-30T23:26:34.344Z,100810.78
2023-01-30T23:29:03.338Z,100814.22
2023-01-30T23:31:31.487Z,100811.06
2023-01-30T23:34:01.032Z,100812.97
2023-01-30T23:36:29.365Z,100801.38
2023-01-30T23:38:58.899Z,100793.88
2023-01-30T23:41:29.652Z,100808.63
2023-01-30T23:43:58.462Z,100801.28
2023-01-30T23:46:27.600Z,100807.06
2023-01-30T23:48:57.017Z,100807.00
2023-01-30T23:51:26.461Z,100815.50
2023-01-30T23:53:55.069Z,100798.97
2023-01-30T23:56:24.408Z,100809.53
2023-01-30T23:58:53.723Z,100813.59
